Weather observations for the past three days for
Bolinder Field-Tooele Valley Airport
Imperial (Metric)
Date Time (mdt) Wind (mph) Vis. (mi.) Weather Sky Cond. Temperature (ºF) Relative Humidity Wind Chill (°F) Heat Index (°F) Pressure Precipitation (in)
Air Dwpt 6 hour altimeter (in) sea level (mb) 1 hr 3 hr 6 hr
Max. Min.
04 14:15 S 10 4.00 Mostly Cloudy with Haze BKN100 BKN120 71.6 32 23% 29.79 0.0
04 13:55 N 9 5.00 Partly Cloudy with Haze SCT110 71.6 35.6 27% 29.78 0.0
04 13:35 N 14 5.00 Fair with Haze CLR 71.6 35.6 27% 29.77 0.0
04 13:15 N 13 G 22 5.00 Fair with Haze CLR 73.4 32 22% 29.77 0.0
04 12:55 N 17 5.00 Fair with Haze CLR 75.2 33.8 22% 76 29.78 0.0
04 12:36 N 15 5.00 Fair with Haze CLR 75.2 35.6 24% 76 29.78 0.0
04 12:15 N 13 5.00 A Few Clouds with Haze FEW090 73.4 35.6 25% 29.79 0.0
04 11:55 Vrbl 7 5.00 Fair with Haze CLR 77 30.2 76.5 48.6 18% 77 29.8 0.0
04 11:35 Vrbl 2 5.00 Fair with Haze CLR 73.4 30.2 20% 29.8 0.0
04 11:15 Vrbl 7 4.00 Fair with Haze CLR 73.4 33.8 23% 29.81 0.0
04 10:55 Vrbl 3 5.00 Fair with Haze CLR 73.4 32 22% 29.81 0.0
04 10:35 E 8 5.00 Fair with Haze CLR 73.4 35.6 25% 29.81 0.0
04 10:15 Vrbl 3 5.00 Fair with Haze CLR 71.6 37.4 29% 29.81 0.0
04 09:55 Vrbl 5 5.00 Fair with Haze CLR 69.8 39.2 33% 29.82 0.0
04 09:35 NE 6 5.00 Fair with Haze CLR 68 37.4 33% 29.82 0.0
04 09:15 NE 5 5.00 Fair with Haze CLR 66.2 37.4 35% 29.82 0.0
04 08:55 Vrbl 2 5.00 Fair with Haze CLR 64.4 39.2 40% 29.83 0.0
04 08:35 Vrbl 2 5.00 Fair with Haze CLR 62.6 39.2 42% 29.83 0.0
04 08:15 Vrbl 2 5.00 Fair with Haze CLR 60.8 35.6 39% 29.83 0.0
04 07:55 Vrbl 3 5.00 Fair with Haze CLR 59 37.4 45% 29.83 0.0
04 07:35 E 2 5.00 Fair with Haze CLR 55.4 33.8 44% 29.83 0.0
04 07:15 SE 5 5.00 A Few Clouds with Haze FEW110 55.4 32 41% 29.82 0.0
04 06:56 S 2 5.00 Mostly Cloudy with Haze BKN120 53.6 30.2 41% 29.82 0.0
04 06:35 Vrbl 1 5.00 Mostly Cloudy with Haze BKN120 50 30.2 47% 29.82 0.0
04 06:15 SE 5 5.00 Mostly Cloudy with Haze BKN120 51.8 32 47% 29.82 0.0
04 05:55 SW 1 5.00 Mostly Cloudy with Haze BKN120 55.4 32 63.3 45.9 41% 29.82 0.0
04 05:35 Vrbl 2 5.00 Partly Cloudy with Haze SCT120 55.4 33.8 44% 29.82 0.0
04 05:15 NE 5 5.00 Partly Cloudy with Haze SCT120 59 33.8 39% 29.82 0.0
04 04:55 S 13 5.00 Partly Cloudy with Haze SCT120 59 33.8 39% 29.81 0.0
04 04:35 S 15 5.00 A Few Clouds with Haze FEW120 59 32 36% 29.81 0.0
04 04:15 S 14 5.00 Partly Cloudy with Haze SCT120 59 32 36% 29.8 0.0
04 03:55 S 16 5.00 Partly Cloudy with Haze SCT120 59 32 36% 29.8 0.0
04 03:15 S 16 G 29 5.00 A Few Clouds with Haze FEW120 62.6 28.4 27% 29.8 0.0
04 02:55 SW 15 5.00 Mostly Cloudy with Haze BKN120 60.8 28.4 29% 29.8 0.0
04 02:35 S 12 5.00 Partly Cloudy with Haze SCT110 60.8 26.6 27% 29.79 0.0
04 02:15 S 13 5.00 Fair with Haze CLR 57.2 24.8 29% 29.8 0.0
04 01:55 S 16 G 26 5.00 Fair with Haze CLR 57.2 24.8 29% 29.81 0.0
04 01:35 S 13 6.00 Fair with Haze CLR 50 28.4 43% 46 29.82 0.0
04 01:15 S 5 6.00 Fair with Haze CLR 51.8 26.6 38% 29.81 0.0
04 00:55 Vrbl 6 6.00 Fair with Haze CLR 46.4 28.4 50% 44 29.8 0.0
04 00:35 S 9 6.00 Fair with Haze CLR 48.2 28.4 46% 45 29.81 0.0
04 00:06 S 8 6.00 Fair with Haze CLR 50 28.4 43% 47 29.81 0.0
03 23:55 S 8 5.00 Fair with Haze CLR 50 28.4 71.4 50.2 43% 47 29.81 0.0
03 23:35 S 8 5.00 Fair with Haze CLR 50 30.2 47% 47 29.82 0.0
03 23:15 SE 5 5.00 Fair with Haze CLR 53.6 30.2 41% 29.82 0.0
03 22:55 SW 5 5.00 Fair with Haze CLR 53.6 28.4 38% 29.83 0.0
03 22:35 S 9 5.00 Fair with Haze CLR 55.4 28.4 36% 29.83 0.0
03 22:15 S 9 5.00 Fair with Haze CLR 57.2 28.4 33% 29.83 0.0
03 21:55 SW 10 5.00 A Few Clouds with Haze FEW120 57.2 30.2 36% 29.82 0.0
03 21:35 S 9 4.00 A Few Clouds with Haze FEW120 55.4 30.2 38% 29.83 0.0
03 21:15 SW 7 5.00 Fair with Haze CLR 57.2 33.8 41% 29.82 0.0
03 20:55 S 7 4.00 Fair with Haze CLR 59 37.4 45% 29.82 0.0
03 20:35 Vrbl 2 5.00 Fair with Haze CLR 62.6 35.6 37% 29.82 0.0
03 20:15 NW 6 4.00 Fair with Haze CLR 64.4 39.2 40% 29.82 0.0
03 19:55 W 2 5.00 Fair with Haze CLR 66.2 37.4 35% 29.82 0.0
03 19:35 SE 2 2.50 Fair with Haze CLR 69.8 37.4 31% 29.83 0.0
03 19:15 E 2 5.00 Fair with Haze CLR 69.8 35.6 29% 29.83 0.0
03 18:55 NE 3 5.00 Fair with Haze CLR 69.8 37.4 31% 29.84 0.0
03 18:35 N 6 6.00 Fair with Haze CLR 69.8 33.8 27% 29.84 0.0
03 18:15 N 7 6.00 Fair with Haze CLR 71.6 35.6 27% 29.85 0.0
03 17:55 N 10 6.00 Fair with Haze CLR 71.6 30.2 77 71.2 22% 29.85 0.0
03 17:35 N 10 6.00 Fair with Haze CLR 71.6 28.4 20% 29.85 0.0
03 17:15 N 12 6.00 Fair with Haze CLR 71.6 30.2 22% 29.85 0.0
03 16:55 N 13 6.00 Fair with Haze CLR 73.4 24.8 16% 29.86 0.0
03 16:35 N 13 6.00 Fair with Haze CLR 73.4 24.8 16% 29.87 0.0
03 16:15 N 14 6.00 Fair with Haze CLR 75.2 23 14% 75 29.87 0.0
03 15:55 N 14 6.00 Fair with Haze CLR 73.4 24.8 16% 29.88 0.0
03 15:35 N 15 6.00 Fair with Haze CLR 75.2 26.6 16% 76 29.89 0.0
03 15:15 N 13 6.00 Fair with Haze CLR 73.4 28.4 19% 29.9 0.0
03 14:55 N 16 6.00 Fair with Haze CLR 75.2 26.6 16% 76 29.91 0.0
03 14:35 N 14 G 20 5.00 Fair with Haze CLR 75.2 28.4 18% 76 29.92 0.0
03 14:15 N 14 5.00 Fair with Haze CLR 73.4 30.2 20% 29.93 0.0
03 13:55 N 13 5.00 Fair with Haze CLR 71.6 32 23% 29.94 0.0
03 13:35 N 13 6.00 Fair with Haze CLR 73.4 26.6 17% 29.95 0.0
03 13:15 NE 13 5.00 Fair with Haze CLR 75.2 24.8 15% 75 29.95 0.0
03 12:35 N 12 5.00 Fair with Haze CLR 71.6 32 23% 29.97 0.0
03 12:15 NE 8 5.00 Fair with Haze CLR 71.6 30.2 22% 29.98 0.0
03 11:55 Vrbl 6 5.00 Fair with Haze CLR 71.6 26.6 74.7 42.1 19% 29.98 0.0
03 11:35 NE 7 5.00 Fair with Haze CLR 71.6 30.2 22% 29.99 0.0
03 11:15 Vrbl 2 5.00 Fair with Haze CLR 73.4 21.2 14% 29.99 0.0
03 10:55 SE 5 5.00 Fair with Haze CLR 71.6 23 16% 30 0.0
03 10:35 Vrbl 3 5.00 Fair with Haze CLR 71.6 23 16% 30 0.0
03 10:15 E 5 5.00 Fair with Haze CLR 71.6 23 16% 30 0.0
03 09:55 Vrbl 2 6.00 Fair with Haze CLR 69.8 21.2 16% 30 0.0
03 09:35 S 7 5.00 Fair with Haze CLR 68 21.2 17% 30 0.0
03 09:15 S 13 5.00 Fair with Haze CLR 62.6 26.6 25% 30.01 0.0
03 08:55 S 14 5.00 Fair with Haze CLR 60.8 24.8 25% 30.01 0.0
03 08:35 S 15 5.00 Fair with Haze CLR 60.8 24.8 25% 30.01 0.0
03 08:15 S 17 G 23 5.00 Fair with Haze CLR 59 24.8 27% 30.01 0.0
03 07:55 S 17 5.00 Fair with Haze CLR 57.2 24.8 29% 30.01 0.0
03 07:35 S 8 5.00 Fair with Haze CLR 51.8 26.6 38% 30.01 0.0
03 07:15 S 12 5.00 Fair with Haze CLR 48.2 24.8 40% 44 30 0.0
03 06:35 S 9 5.00 Fair with Haze CLR 44.6 24.8 46% 40 30 0.0
03 06:15 S 9 5.00 Fair with Haze CLR 44.6 24.8 46% 40 30 0.0
03 05:55 S 5 6.00 Fair with Haze CLR 46.4 24.8 53.4 45.3 43% 45 30 0.0
03 05:35 S 8 6.00 Fair with Haze CLR 46.4 24.8 43% 43 30.01 0.0
03 05:15 S 8 5.00 Fair with Haze CLR 48.2 24.8 40% 45 30.01 0.0
03 04:55 S 8 6.00 Fair with Haze CLR 48.2 24.8 40% 45 30.01 0.0
03 04:35 S 10 5.00 Fair with Haze CLR 51.8 23 32% 30.01 0.0
03 04:15 S 14 6.00 Fair with Haze CLR 51.8 23 32% 30.01 0.0
03 03:55 S 12 6.00 Fair with Haze CLR 48.2 24.8 40% 44 30.01 0.0
03 03:35 S 10 5.00 Fair with Haze CLR 48.2 24.8 40% 44 30.01 0.0
03 03:15 S 10 6.00 Fair with Haze CLR 50 24.8 37% 46 30.01 0.0
03 02:55 S 9 G 16 5.00 Fair with Haze CLR 51.8 24.8 35% 30.01 0.0
03 02:35 S 10 5.00 Fair with Haze CLR 51.8 24.8 35% 30.02 0.0
03 02:15 S 10 5.00 Fair with Haze CLR 50 24.8 37% 46 30.02 0.0
03 01:55 S 8 5.00 Fair with Haze CLR 51.8 24.8 35% 30.03 0.0
03 01:35 S 14 5.00 Fair with Haze CLR 51.8 24.8 35% 30.02 0.0
03 01:15 SW 8 5.00 Fair with Haze CLR 50 26.6 40% 47 30.03 0.0
03 00:55 S 12 5.00 Fair with Haze CLR 50 26.6 40% 46 30.02 0.0
03 00:35 S 9 6.00 Fair with Haze CLR 46.4 28.4 50% 42 30.02 0.0
03 00:15 S 10 6.00 Fair with Haze CLR 46.4 28.4 50% 42 30.02 0.0
02 23:55 S 10 5.00 Fair with Haze CLR 46.4 28.4 71.8 45.5 50% 42 30.02 0.0
02 23:35 S 9 5.00 Fair with Haze CLR 48.2 30.2 50% 45 30.02 0.0
02 23:15 S 12 5.00 Fair with Haze CLR 50 30.2 47% 46 30.02 0.0
02 22:55 S 9 5.00 Fair with Haze CLR 50 30.2 47% 47 30.03 0.0
02 22:36 S 8 5.00 Fair with Haze CLR 53.6 30.2 41% 30.03 0.0
02 22:15 S 7 5.00 Fair with Haze CLR 53.6 32 44% 30.03 0.0
02 21:55 S 9 3.00 Fair with Haze CLR 50 33.8 54% 47 30.03 0.0
02 21:35 S 3 4.00 Fair with Haze CLR 53.6 33.8 47% 30.02 0.0
02 21:15 S 3 5.00 Fair with Haze CLR 51.8 33.8 50% 30.02 0.0
02 20:55 S 3 5.00 Fair with Haze CLR 51.8 35.6 54% 30.02 0.0
02 20:35 Vrbl 3 5.00 Fair with Haze CLR 60.8 35.6 39% 30.02 0.0
02 20:15 N 5 6.00 Fair with Haze CLR 60.8 33.8 36% 30.01 0.0
02 19:55 N 7 6.00 Fair with Haze CLR 62.6 33.8 34% 30.01 0.0
02 19:35 N 8 6.00 Fair with Haze CLR 64.4 35.6 34% 30.01 0.0
02 19:16 N 10 6.00 Fair with Haze CLR 66.2 35.6 32% 30.01 0.0
02 18:55 N 9 6.00 Fair with Haze CLR 66.2 32 28% 30.01 0.0
02 18:35 N 13 6.00 Fair with Haze CLR 68 30.2 24% 30.01 0.0
02 18:15 N 14 6.00 Fair with Haze CLR 69.8 35.6 29% 30.01 0.0
02 17:35 NE 14 6.00 Fair with Haze CLR 73.4 21.2 14% 30.01 0.0
02 17:15 N 12 5.00 Fair with Haze CLR 71.6 21.2 15% 30.02 0.0
02 16:55 N 13 6.00 Fair with Haze CLR 73.4 21.2 14% 30.03 0.0
02 16:35 NE 13 6.00 Fair with Haze CLR 73.4 21.2 14% 30.03 0.0
02 16:15 NE 14 6.00 Fair with Haze CLR 73.4 23 15% 30.05 0.0
02 15:55 NE 14 6.00 Fair with Haze CLR 71.6 21.2 15% 30.06 0.0
02 15:35 NE 14 6.00 Fair with Haze CLR 71.6 23 16% 30.07 0.0
02 15:15 N 16 G 21 5.00 Fair with Haze CLR 73.4 26.6 17% 30.08 0.0
02 14:35 N 14 6.00 Fair with Haze CLR 71.6 24.8 17% 30.09 0.0
02 14:15 N 13 6.00 Fair with Haze CLR 71.6 26.6 19% 30.1 0.0
02 13:55 N 14 6.00 Fair with Haze CLR 71.6 26.6 19% 30.1 0.0
02 13:35 NE 15 6.00 Fair with Haze CLR 71.6 28.4 20% 30.11 0.0
02 13:15 N 14 5.00 Fair with Haze CLR 69.8 26.6 20% 30.12 0.0
02 12:36 N 15 5.00 Fair with Haze CLR 69.8 28.4 21% 30.13 0.0
02 12:15 N 14 5.00 Fair with Haze CLR 69.8 28.4 21% 30.13 0.0
02 11:55 N 12 5.00 Fair with Haze CLR 69.8 26.6 71.8 40.8 20% 30.14 0.0
02 11:35 SW 9 6.00 Fair with Haze CLR 71.6 15.8 12% 30.14 0.0
02 11:15 Vrbl 5 G 20 5.00 Fair with Haze CLR 71.6 24.8 17% 30.14 0.0
02 10:55 S 7 5.00 Fair with Haze CLR 69.8 26.6 20% 30.15 0.0
02 10:36 Vrbl 7 5.00 Fair with Haze CLR 68 23 18% 30.15 0.0
02 10:15 Vrbl 6 5.00 Fair with Haze CLR 66.2 24.8 21% 30.15 0.0
02 09:55 S 12 G 17 5.00 Fair with Haze CLR 64.4 23 21% 30.15 0.0
02 09:35 S 15 5.00 Fair with Haze CLR 62.6 24.8 24% 30.15 0.0
02 09:15 SW 9 5.00 Fair with Haze CLR 62.6 26.6 25% 30.15 0.0
02 08:55 S 10 5.00 Fair with Haze CLR 60.8 26.6 27% 30.16 0.0
02 08:35 SE 8 5.00 Fair with Haze CLR 57.2 26.6 31% 30.16 0.0
02 08:15 Vrbl 3 5.00 Fair with Haze CLR 53.6 30.2 41% 30.16 0.0
02 07:55 Vrbl 2 5.00 Fair with Haze CLR 50 30.2 47% 30.16 0.0
02 07:35 N 2 5.00 Fair with Haze CLR 44.6 28.4 53% 30.15 0.0
02 06:55 S 7 5.00 Fair with Haze CLR 44.6 24.8 46% 41 30.15 0.0
02 06:35 Vrbl 2 6.00 Fair with Haze CLR 41 24.8 53% 30.15 0.0
02 06:15 SE 3 6.00 Fair with Haze CLR 41 24.8 53% 30.14 0.0
02 05:55 S 6 6.00 Fair with Haze CLR 44.6 24.8 47.5 41.2 46% 42 30.14 0.0
02 05:35 Vrbl 3 6.00 Fair with Haze CLR 42.8 24.8 49% 30.15 0.0
02 05:15 Vrbl 1 6.00 Fair with Haze CLR 42.8 24.8 49% 30.14 0.0
02 04:55 SW 3 6.00 Fair with Haze CLR 42.8 24.8 49% 30.14 0.0
02 04:35 Vrbl 3 5.00 Fair with Haze CLR 46.4 23 40% 30.14 0.0
02 04:15 S 8 6.00 Fair with Haze CLR 44.6 24.8 46% 41 30.14 0.0
02 03:55 S 6 5.00 Fair with Haze CLR 44.6 24.8 46% 42 30.14 0.0
02 03:35 S 6 6.00 Fair with Haze CLR 46.4 24.8 43% 44 30.14 0.0
02 03:15 S 13 6.00 Fair with Haze CLR 46.4 24.8 43% 41 30.13 0.0
02 02:56 S 14 5.00 Fair with Haze CLR 46.4 24.8 43% 41 30.13 0.0
02 02:35 S 13 5.00 Fair with Haze CLR 46.4 24.8 43% 41 30.13 0.0
02 02:15 S 14 6.00 Fair with Haze CLR 46.4 26.6 46% 41 30.14 0.0
02 01:55 S 12 6.00 Fair with Haze CLR 44.6 26.6 49% 39 30.14 0.0
02 01:35 S 10 6.00 Fair with Haze CLR 42.8 28.4 57% 38 30.14 0.0
02 01:15 S 9 6.00 Fair with Haze CLR 42.8 28.4 57% 38 30.14 0.0
02 00:55 S 9 6.00 Fair with Haze CLR 41 26.6 57% 36 30.14 0.0
02 00:35 S 9 6.00 Fair with Haze CLR 44.6 26.6 49% 40 30.14 0.0
02 00:15 S 12 6.00 Fair with Haze CLR 44.6 26.6 49% 39 30.14 0.0
01 23:56 S 10 6.00 Fair with Haze CLR 42.8 28.4 57% 38 30.14 0.0
01 23:35 S 12 6.00 Fair with Haze CLR 44.6 26.6 49% 39 30.14 0.0
01 23:15 S 12 6.00 Fair with Haze CLR 42.8 26.6 53% 37 30.14 0.0
01 22:55 S 9 6.00 Fair with Haze CLR 44.6 26.6 49% 40 30.14 0.0
01 22:35 S 8 6.00 Fair with Haze CLR 44.6 26.6 49% 41 30.14 0.0
01 22:15 S 7 5.00 Fair with Haze CLR 46.4 26.6 46% 43 30.14 0.0
01 21:55 S 6 5.00 Fair with Haze CLR 50 26.6 40% 48 30.13 0.0
01 21:35 SW 6 5.00 Fair with Haze CLR 44.6 28.4 53% 42 30.13 0.0
01 21:15 SE 6 5.00 Fair with Haze CLR 44.6 28.4 53% 42 30.12 0.0
01 20:55 SE 5 5.00 Fair with Haze CLR 48.2 28.4 46% 47 30.11 0.0
01 20:35 SE 5 6.00 Fair with Haze CLR 59 26.6 29% 30.1 0.0
01 20:15 NE 2 5.00 Fair with Haze CLR 60.8 26.6 27% 30.1 0.0
01 19:55 NE 5 6.00 Fair with Haze CLR 60.8 24.8 25% 30.1 0.0
01 19:35 N 6 6.00 Fair with Haze CLR 60.8 23 23% 30.1 0.0
01 19:15 N 10 6.00 Fair with Haze CLR 62.6 24.8 24% 30.09 0.0
01 18:55 N 10 6.00 Fair with Haze CLR 62.6 23 22% 30.1 0.0
01 18:35 N 12 6.00 Fair with Haze CLR 64.4 21.2 19% 30.1 0.0
01 18:15 N 12 6.00 Fair with Haze CLR 64.4 23 21% 30.1 0.0
01 17:55 N 14 6.00 Fair with Haze CLR 64.4 23 65.8 59.2 21% 30.1 0.0
01 17:35 N 13 6.00 Fair with Haze CLR 64.4 21.2 19% 30.1 0.0
01 17:15 N 14 6.00 Fair with Haze CLR 64.4 24.8 22% 30.1 0.0
01 16:55 NE 12 6.00 Fair with Haze CLR 64.4 24.8 22% 30.1 0.0
01 16:35 N 12 6.00 Fair with Haze CLR 64.4 23 21% 30.11 0.0
01 16:15 N 12 G 17 6.00 Fair with Haze CLR 64.4 23 21% 30.12 0.0
01 15:55 N 13 G 16 6.00 Fair with Haze CLR 64.4 23 21% 30.12 0.0
01 15:35 NE 10 G 17 6.00 Fair with Haze CLR 64.4 23 21% 30.13 0.0
01 15:15 N 12 6.00 Fair with Haze CLR 64.4 23 21% 30.13 0.0
01 14:55 N 10 G 16 6.00 Fair with Haze CLR 64.4 21.2 19% 30.13 0.0
01 14:35 N 12 6.00 Fair with Haze CLR 62.6 21.2 20% 30.14 0.0
Date Time (mdt) Wind (mph) Vis. (mi.) Weather Sky Cond. Air Dwpt Max. Min. Relative Humidity Wind Chill (°F) Heat Index (°F) altimeter (in) sea level (mb) 1 hr 3 hr 6 hr
6 hour
Temperature (ºF) Pressure Precipitation (in)